19:17
Airports
History
Links
Donate
Help keep this website running!
PayPal
Bitcoin
This page is community maintained. The information is intended for PC simulator navigation or reference.
Always use approved charts for navigation.
SNLU
Fazenda Boa Luz
Fazenda Boa Luz (SNLU)
Laranjeiras, Sergipe, Brazil (49160)
4
Lat/Lng:10° 50' 32" S / 37° 12' 14" W
-10.842222 / -37.203889
Elevation:167'ft / 51mMSL
ID / ICAO:SNLU
Runways:1
Longest:01-19
Gravel 499m / 1,637ft
Nearby Weather19:00 GMT 2017-11-18
Nearby weather at SBAR, SANTA MARIA located 13.3 nautical miles from SNLU
Altimeter: 29.80
Visibility: 6.2 statute miles
Wind: 15 knots (from 090°)
Temp: 27°c / 81°f
Humidity: 69.8%

METAR: SBAR 181900Z 09015KT 9999 SCT017 27/21 Q1009

(Powered by phpweather)
Runway 01 / 19
Dimensions:498.9 x 18m 1637' x 59'ft
Surface:Gravel
Runway 01 [A]Runway 19 [B]
Heading:347°TH 167°TH
Lat:
Lng:
10° 50' 39.86"S
37° 12' 12.18"W
10° 50' 24.14"S
37° 12' 15.82"W
User Notes and Comments
10° 50' 32" S / 37° 12' 14" W
Distance To
Airport ID:
Nearby Airports
(C) Aeroclub 9.2 NM
SNAU ESE 117°
(U) SANTA MARIA 13.3 NM
SBAR ( WX ) SE 137°
4 Praia do Saco 40.9 NM
SNOD S 191°
(U) Propria 47.0 NM
SNOP NNE 32°
(C) Penedo 59.6 NM
SNPE NE 48°
(U) ADUSTINA 62.7 NM
SNAH WNW 286°
4 Campo da Praia 75.7 NM
SNCY NE 55°
VFR Chart
Flight Planning at SkyVector.com